createdAt,value
2022-08-08T00:01:08.244Z,2.40
2022-08-08T00:06:28.498Z,2.87
2022-08-08T00:11:46.703Z,2.90
2022-08-08T00:17:22.829Z,2.47
2022-08-08T00:22:33.863Z,2.20
2022-08-08T00:27:44.255Z,2.73
2022-08-08T00:32:51.705Z,2.70
2022-08-08T00:38:16.893Z,3.00
2022-08-08T00:43:56.242Z,2.50
2022-08-08T00:49:27.243Z,2.70
2022-08-08T00:55:09.742Z,2.93
2022-08-08T01:00:17.225Z,2.60
2022-08-08T01:06:10.861Z,2.73
2022-08-08T01:12:29.409Z,2.90
2022-08-08T01:18:53.183Z,2.57
2022-08-08T01:24:38.539Z,2.73
2022-08-08T01:30:10.306Z,2.53
2022-08-08T01:36:01.631Z,3.00
2022-08-08T01:41:18.316Z,3.07
2022-08-08T01:46:47.326Z,2.80
2022-08-08T01:52:58.936Z,2.80
2022-08-08T01:58:12.165Z,3.17
2022-08-08T02:03:57.109Z,3.13
2022-08-08T02:08:55.988Z,3.10
2022-08-08T02:14:06.824Z,2.63
2022-08-08T02:19:41.727Z,2.93
2022-08-08T02:24:54.468Z,2.70
2022-08-08T02:30:20.796Z,3.10
2022-08-08T02:36:02.705Z,2.87
2022-08-08T02:41:59.077Z,2.50
2022-08-08T02:47:33.514Z,3.20
2022-08-08T02:53:10.610Z,3.43
2022-08-08T02:59:26.131Z,2.70
2022-08-08T03:05:22.429Z,3.00
2022-08-08T03:11:05.366Z,3.50
2022-08-08T03:16:35.808Z,3.30
2022-08-08T03:21:58.954Z,3.03
2022-08-08T03:27:14.231Z,2.90
2022-08-08T03:32:37.358Z,3.20
2022-08-08T03:37:59.342Z,3.07
2022-08-08T03:43:15.600Z,2.77
2022-08-08T03:49:10.078Z,3.10
2022-08-08T03:53:47.815Z,3.50
2022-08-08T03:58:54.445Z,2.97
2022-08-08T04:04:01.929Z,2.87
2022-08-08T04:09:17.875Z,3.23
2022-08-08T04:14:34.733Z,3.70
2022-08-08T04:19:39.262Z,3.20
2022-08-08T04:24:42.342Z,2.97
2022-08-08T04:29:55.386Z,3.90
2022-08-08T04:35:16.381Z,3.20
2022-08-08T04:40:24.217Z,3.50
2022-08-08T04:45:33.486Z,3.60
2022-08-08T04:50:38.928Z,3.20
2022-08-08T04:55:55.873Z,3.07
2022-08-08T05:01:05.895Z,3.13
2022-08-08T05:06:18.325Z,3.40
2022-08-08T05:11:28.960Z,3.10
2022-08-08T05:16:52.344Z,3.57
2022-08-08T05:22:01.571Z,3.40
2022-08-08T05:27:08.302Z,2.90
2022-08-08T05:32:15.926Z,3.23
2022-08-08T05:37:20.719Z,3.43
2022-08-08T05:42:37.075Z,2.70
2022-08-08T05:48:00.048Z,3.30
2022-08-08T05:53:54.441Z,3.50
2022-08-08T05:58:33.512Z,3.00
2022-08-08T06:03:42.093Z,2.93
2022-08-08T06:08:54.858Z,3.13
2022-08-08T06:14:00.332Z,2.80
2022-08-08T06:19:05.611Z,2.83
2022-08-08T06:24:14.089Z,2.43
2022-08-08T06:30:00.487Z,2.40
2022-08-08T06:36:04.598Z,2.80
2022-08-08T06:40:36.999Z,2.70
2022-08-08T06:45:48.259Z,2.50
2022-08-08T06:50:55.671Z,2.80
2022-08-08T06:56:03.042Z,2.90
2022-08-08T07:02:17.805Z,3.10
2022-08-08T07:06:48.591Z,2.37
2022-08-08T07:11:53.076Z,2.30
2022-08-08T07:17:09.549Z,2.63
2022-08-08T07:22:28.755Z,2.20
2022-08-08T07:28:07.528Z,2.20
2022-08-08T07:33:11.894Z,2.38
2022-08-08T07:38:29.719Z,2.38
2022-08-08T07:43:51.175Z,2.35
2022-08-08T07:48:57.104Z,2.30
2022-08-08T07:54:15.889Z,2.00
2022-08-08T07:59:37.850Z,2.42
2022-08-08T08:04:49.409Z,2.58
2022-08-08T08:09:58.886Z,2.10
2022-08-08T08:15:05.822Z,1.90
2022-08-08T08:20:15.842Z,1.90
2022-08-08T08:25:40.832Z,1.98
2022-08-08T08:30:45.723Z,2.00
2022-08-08T08:36:19.269Z,2.10
2022-08-08T08:41:17.025Z,2.40
2022-08-08T08:46:25.983Z,1.95
2022-08-08T08:51:31.442Z,2.38
2022-08-08T08:56:39.122Z,2.35
2022-08-08T09:01:51.673Z,2.20
2022-08-08T09:07:12.658Z,2.30
2022-08-08T09:12:22.526Z,2.40
2022-08-08T09:17:41.096Z,2.35
2022-08-08T09:22:54.136Z,2.50
2022-08-08T09:28:04.005Z,2.25
2022-08-08T09:33:54.639Z,2.25
2022-08-08T09:38:52.566Z,2.05
2022-08-08T09:44:12.902Z,1.88
2022-08-08T09:49:42.107Z,2.05
2022-08-08T09:54:45.744Z,2.42
2022-08-08T10:00:28.913Z,2.58
2022-08-08T10:05:20.051Z,2.60
2022-08-08T10:10:31.436Z,2.20
2022-08-08T10:15:39.817Z,2.20
2022-08-08T10:20:57.592Z,2.50
2022-08-08T10:26:04.661Z,2.22
2022-08-08T10:31:49.723Z,2.10
2022-08-08T10:36:54.122Z,1.92
2022-08-08T10:42:15.368Z,2.05
2022-08-08T10:47:22.158Z,2.40
2022-08-08T10:52:28.330Z,1.95
2022-08-08T10:57:50.101Z,2.10
2022-08-08T11:02:58.980Z,2.30
2022-08-08T11:08:30.753Z,2.08
2022-08-08T11:13:29.674Z,2.38
2022-08-08T11:18:35.514Z,1.73
2022-08-08T11:23:42.473Z,1.95
2022-08-08T11:28:47.187Z,2.03
2022-08-08T11:34:02.921Z,2.13
2022-08-08T11:39:12.685Z,1.92
2022-08-08T11:44:16.745Z,1.77
2022-08-08T11:49:33.523Z,1.63
2022-08-08T11:54:38.434Z,2.00
2022-08-08T12:00:01.442Z,2.05
2022-08-08T12:05:18.974Z,2.00
2022-08-08T12:10:28.076Z,1.90
2022-08-08T12:15:41.799Z,2.00
2022-08-08T12:20:50.700Z,1.88
2022-08-08T12:25:56.967Z,1.90
2022-08-08T12:31:07.168Z,2.20
2022-08-08T12:36:14.461Z,1.95
2022-08-08T12:41:35.163Z,2.10
2022-08-08T12:46:59.299Z,2.10
2022-08-08T12:52:28.332Z,2.08
2022-08-08T12:57:31.214Z,1.98
2022-08-08T13:02:37.856Z,2.40
2022-08-08T13:08:04.177Z,1.83
2022-08-08T13:13:08.331Z,1.95
2022-08-08T13:18:14.061Z,2.20
2022-08-08T13:23:35.227Z,2.47
2022-08-08T13:28:42.350Z,2.28
2022-08-08T13:33:49.842Z,2.10
2022-08-08T13:38:54.859Z,2.47
2022-08-08T13:44:04.775Z,2.20
2022-08-08T13:50:37.262Z,2.45
2022-08-08T13:54:49.534Z,2.15
2022-08-08T13:59:53.536Z,2.22
2022-08-08T14:05:09.111Z,1.95
2022-08-08T14:10:32.919Z,2.60
2022-08-08T14:15:46.496Z,2.28
2022-08-08T14:21:02.626Z,2.10
2022-08-08T14:26:11.524Z,2.20
2022-08-08T14:31:23.420Z,2.35
2022-08-08T14:36:40.992Z,2.38
2022-08-08T14:42:07.427Z,2.17
2022-08-08T14:47:21.026Z,2.20
2022-08-08T14:52:24.996Z,2.25
2022-08-08T14:58:03.215Z,2.00
2022-08-08T15:03:01.664Z,2.72
2022-08-08T15:08:22.281Z,2.40
2022-08-08T15:13:41.047Z,2.30
2022-08-08T15:19:01.711Z,2.20
2022-08-08T15:24:05.433Z,2.40
2022-08-08T15:29:17.246Z,2.30
2022-08-08T15:34:31.909Z,2.75
2022-08-08T15:39:38.196Z,2.60
2022-08-08T15:44:44.144Z,2.40
2022-08-08T15:49:49.010Z,2.42
2022-08-08T15:54:52.861Z,2.40
2022-08-08T16:00:05.536Z,2.40
2022-08-08T16:05:21.528Z,2.50
2022-08-08T16:13:04.076Z,2.45
2022-08-08T16:15:59.133Z,2.72
2022-08-08T16:21:20.737Z,2.35
2022-08-08T16:26:33.795Z,2.60
2022-08-08T16:31:44.675Z,2.50
2022-08-08T16:36:51.807Z,2.60
2022-08-08T16:42:00.845Z,2.35
2022-08-08T16:47:21.686Z,2.25
2022-08-08T16:55:01.401Z,2.83
2022-08-08T16:58:14.213Z,2.92
2022-08-08T17:03:25.296Z,3.00
2022-08-08T17:08:44.161Z,2.72
2022-08-08T17:14:01.466Z,2.72
2022-08-08T17:19:06.355Z,2.42
2022-08-08T17:24:27.124Z,2.95
2022-08-08T17:29:36.315Z,2.95
2022-08-08T17:35:52.015Z,3.20
2022-08-08T17:40:15.204Z,2.60
2022-08-08T17:45:23.424Z,2.90
2022-08-08T17:50:28.458Z,2.95
2022-08-08T17:56:04.775Z,2.90
2022-08-08T18:00:57.247Z,3.20
2022-08-08T18:06:02.811Z,3.50
2022-08-08T18:11:23.137Z,2.80
2022-08-08T18:16:26.851Z,3.28
2022-08-08T18:21:59.956Z,3.40
2022-08-08T18:27:00.808Z,3.92
2022-08-08T18:32:09.938Z,3.38
2022-08-08T18:37:17.768Z,2.95
2022-08-08T18:42:37.320Z,2.80
2022-08-08T18:47:48.573Z,2.97
2022-08-08T18:52:52.957Z,3.03
2022-08-08T18:57:57.435Z,3.70
2022-08-08T19:03:04.099Z,3.72
2022-08-08T19:08:24.449Z,3.58
2022-08-08T19:13:52.841Z,3.00
2022-08-08T19:19:02.119Z,2.90
2022-08-08T19:24:12.714Z,2.90
2022-08-08T19:29:31.347Z,2.97
2022-08-08T19:34:41.264Z,3.30
2022-08-08T19:39:50.847Z,3.75
2022-08-08T19:44:54.232Z,3.38
2022-08-08T19:50:00.462Z,3.37
2022-08-08T19:55:09.279Z,3.25
2022-08-08T20:00:29.249Z,2.70
2022-08-08T20:06:13.567Z,3.13
2022-08-08T20:10:59.216Z,2.80
2022-08-08T20:16:02.274Z,3.60
2022-08-08T20:21:06.779Z,2.65
2022-08-08T20:26:11.242Z,3.20
2022-08-08T20:31:14.231Z,5.27
2022-08-08T20:36:22.536Z,3.63
2022-08-08T20:41:26.934Z,2.90
2022-08-08T20:46:31.644Z,2.97
2022-08-08T20:51:36.556Z,3.30
2022-08-08T20:57:04.638Z,3.30
2022-08-08T21:02:06.196Z,3.30
2022-08-08T21:07:16.327Z,3.10
2022-08-08T21:12:24.763Z,2.97
2022-08-08T21:17:35.731Z,3.60
2022-08-08T21:22:39.687Z,3.57
2022-08-08T21:28:14.729Z,3.73
2022-08-08T21:33:11.012Z,3.10
2022-08-08T21:38:17.233Z,3.40
2022-08-08T21:43:22.762Z,3.50
2022-08-08T21:48:31.670Z,3.27
2022-08-08T21:54:35.076Z,3.70
2022-08-08T21:59:05.687Z,3.40
2022-08-08T22:04:12.823Z,4.10
2022-08-08T22:09:15.832Z,3.23
2022-08-08T22:14:21.720Z,3.23
2022-08-08T22:19:28.938Z,3.20
2022-08-08T22:24:32.093Z,3.50
2022-08-08T22:29:59.225Z,3.10
2022-08-08T22:34:59.625Z,3.67
2022-08-08T22:40:11.719Z,3.67
2022-08-08T22:45:21.193Z,3.67
2022-08-08T22:50:28.369Z,3.30
2022-08-08T22:55:32.284Z,3.53
2022-08-08T23:00:59.817Z,3.43
2022-08-08T23:06:03.524Z,3.27
2022-08-08T23:11:13.143Z,3.77
2022-08-08T23:16:37.612Z,3.83
2022-08-08T23:21:40.967Z,3.73
2022-08-08T23:26:44.368Z,3.30
2022-08-08T23:32:01.815Z,3.47
2022-08-08T23:37:07.767Z,4.03
2022-08-08T23:42:14.653Z,3.67
2022-08-08T23:49:05.807Z,3.97
2022-08-08T23:52:45.691Z,3.20
2022-08-08T23:57:52.552Z,3.70
